aviador You're here:

LFPG Decoded Metar

PARIS CHARLES DE GAULLE in FRANCE
Report Time2018-02-21 04:30:00
UTC Time2018-02-21 04:55:17
Flight Rules ifr IFR
Wind020° at 11 Gusting to 24 kt
W.Decomp.*RWY 08: 5.7 kt HW 9.4 kt LCW
RWY 09: 3.9 kt HW 10.3 kt LCW
W.Rank020° ranks 6
Current wind is above 020° avg. (7.0)
Visibility4500 m
Phenomena:Mist
Clouds:N/A
Expected CloudBase > 400 ft AGL from Temp-Dew spread
CeilingNone
Temp00°C (ISA -14)
Dew Point-1°C (93% RH)
AAT-6.1°C
QNH1021 hPa
Density Alt-1,581 ft
Elevation358 ft
Report Wrong Elevation
Raw Report
LFPG 210430Z 02011G24KT 4500 BR NSC 00/M01 Q1021 NOSIG=

Extra information for LFPG:More info

Metar Taf Metar & Taf Last 4 Metars F.Rules Stats Wind Profile Meteogram Temp Stats Airport Information Weather charts Add Link Nearby VenuesMetar ALERT Operation Metar Decoded Social comments